createdAt,value
2018-05-26T00:02:26.194Z,93.80
2018-05-26T00:04:55.246Z,94.00
2018-05-26T00:07:24.150Z,94.00
2018-05-26T00:09:54.000Z,93.70
2018-05-26T00:12:22.990Z,93.60
2018-05-26T00:14:51.983Z,93.80
2018-05-26T00:17:20.994Z,93.90
2018-05-26T00:19:50.007Z,94.00
2018-05-26T00:22:18.961Z,93.50
2018-05-26T00:24:47.872Z,93.40
2018-05-26T00:27:16.805Z,93.60
2018-05-26T00:29:46.610Z,94.00
2018-05-26T00:32:16.381Z,94.10
2018-05-26T00:34:45.370Z,94.10
2018-05-26T00:37:14.326Z,93.80
2018-05-26T00:39:43.280Z,93.20
2018-05-26T00:42:12.287Z,92.70
2018-05-26T00:44:42.028Z,94.10
2018-05-26T00:47:10.980Z,94.00
2018-05-26T00:49:39.924Z,94.20
2018-05-26T00:52:15.172Z,94.50
2018-05-26T00:54:44.883Z,94.70
2018-05-26T00:57:13.812Z,94.60
2018-05-26T00:59:42.800Z,94.50
2018-05-26T01:02:11.765Z,94.60
2018-05-26T01:04:40.722Z,94.70
2018-05-26T01:07:09.669Z,94.80
2018-05-26T01:09:38.588Z,95.00
2018-05-26T01:12:08.372Z,93.60
2018-05-26T01:14:37.498Z,93.60
2018-05-26T01:17:06.515Z,93.50
2018-05-26T01:19:35.781Z,93.50
2018-05-26T01:22:04.770Z,93.60
2018-05-26T01:24:33.703Z,93.80
2018-05-26T01:27:02.690Z,93.90
2018-05-26T01:29:31.702Z,94.00
2018-05-26T01:32:00.678Z,93.90
2018-05-26T01:34:29.661Z,94.00
2018-05-26T01:36:59.384Z,93.90
2018-05-26T01:39:28.333Z,93.90
2018-05-26T01:41:57.274Z,93.70
2018-05-26T01:44:26.246Z,93.40
2018-05-26T01:46:55.242Z,93.00
2018-05-26T01:49:24.221Z,93.00
2018-05-26T01:51:53.202Z,93.10
2018-05-26T01:54:22.167Z,92.90
2018-05-26T01:56:51.136Z,93.20
2018-05-26T01:59:20.095Z,93.40
2018-05-26T02:01:49.107Z,93.60
2018-05-26T02:04:18.081Z,93.90
2018-05-26T02:06:47.053Z,93.70
2018-05-26T02:09:16.777Z,93.70
2018-05-26T02:11:45.700Z,93.70
2018-05-26T02:14:14.676Z,94.20
2018-05-26T02:16:43.622Z,94.50
2018-05-26T02:19:12.556Z,94.60
2018-05-26T02:21:41.654Z,94.70
2018-05-26T02:24:10.614Z,94.30
2018-05-26T02:26:39.546Z,94.00
2018-05-26T02:29:08.484Z,94.20
2018-05-26T02:31:37.401Z,94.30
2018-05-26T02:34:07.151Z,94.30
2018-05-26T02:36:36.175Z,94.20
2018-05-26T02:39:06.058Z,93.90
2018-05-26T02:41:35.037Z,93.90
2018-05-26T02:44:04.048Z,93.70
2018-05-26T02:46:32.965Z,93.80
2018-05-26T02:49:01.916Z,94.00
2018-05-26T02:51:30.832Z,93.90
2018-05-26T02:53:59.794Z,93.90
2018-05-26T02:56:28.713Z,93.60
2018-05-26T02:58:57.628Z,93.50
2018-05-26T03:01:26.565Z,93.60
2018-05-26T03:03:54.947Z,93.70
2018-05-26T03:06:30.241Z,93.00
2018-05-26T03:09:05.575Z,92.80
2018-05-26T03:11:40.164Z,92.80
2018-05-26T03:14:14.670Z,93.00
2018-05-26T03:16:52.151Z,93.10
2018-05-26T03:19:21.097Z,93.00
2018-05-26T03:21:50.060Z,93.20
2018-05-26T03:24:19.000Z,93.40
2018-05-26T03:26:48.730Z,93.70
2018-05-26T03:29:17.687Z,93.70
2018-05-26T03:31:46.687Z,93.80
2018-05-26T03:34:16.424Z,93.90
2018-05-26T03:36:45.383Z,93.90
2018-05-26T03:39:14.319Z,94.00
2018-05-26T03:41:43.238Z,94.20
2018-05-26T03:44:12.249Z,93.30
2018-05-26T03:46:41.253Z,93.10
2018-05-26T03:49:10.197Z,92.90
2018-05-26T03:51:39.209Z,92.80
2018-05-26T03:54:08.205Z,92.80
2018-05-26T03:56:56.028Z,92.70
2018-05-26T04:13:14.483Z,93.20
2018-05-26T04:15:46.120Z,93.30
2018-05-26T04:18:18.462Z,93.80
2018-05-26T04:20:47.444Z,93.80
2018-05-26T04:23:16.499Z,93.90
2018-05-26T04:25:45.444Z,94.10
2018-05-26T04:28:14.357Z,94.40
2018-05-26T04:30:43.283Z,94.60
2018-05-26T04:33:12.509Z,94.60
2018-05-26T04:35:41.438Z,94.20
2018-05-26T04:38:10.537Z,93.80
2018-05-26T04:40:40.178Z,92.60
2018-05-26T04:43:10.345Z,90.50
2018-05-26T04:45:39.630Z,85.40
2018-05-26T04:48:08.642Z,76.60
2018-05-26T04:50:37.929Z,71.10
2018-05-26T04:53:07.100Z,67.80
2018-05-26T04:55:36.826Z,59.50
2018-05-26T04:58:05.921Z,59.40
2018-05-26T05:00:34.947Z,56.70
2018-05-26T05:03:04.105Z,54.40
2018-05-26T05:05:33.236Z,52.20
2018-05-26T05:08:02.227Z,51.30
2018-05-26T05:10:47.387Z,48.90
2018-05-26T05:13:16.814Z,46.80
2018-05-26T05:15:46.822Z,46.00
2018-05-26T05:18:20.330Z,47.00
2018-05-26T05:21:02.912Z,46.00
2018-05-26T05:23:32.017Z,46.40
2018-05-26T05:26:01.037Z,46.90
2018-05-26T05:28:30.042Z,47.60
2018-05-26T05:30:59.051Z,47.30
2018-05-26T05:33:28.782Z,48.10
2018-05-26T05:35:57.732Z,48.00
2018-05-26T05:38:26.692Z,46.50
2018-05-26T05:40:55.697Z,45.30
2018-05-26T05:43:24.690Z,45.90
2018-05-26T05:45:54.601Z,44.50
2018-05-26T05:48:23.598Z,43.40
2018-05-26T05:50:53.531Z,44.40
2018-05-26T05:53:24.328Z,45.20
2018-05-26T05:55:53.319Z,45.10
2018-05-26T05:58:22.296Z,44.10
2018-05-26T06:00:51.284Z,41.70
2018-05-26T06:03:20.183Z,39.00
2018-05-26T06:05:49.129Z,37.10
2018-05-26T06:08:18.062Z,36.70
2018-05-26T06:10:46.964Z,36.80
2018-05-26T06:13:15.915Z,36.30
2018-05-26T06:15:45.664Z,37.20
2018-05-26T06:18:16.569Z,36.60
2018-05-26T06:20:46.317Z,36.80
2018-05-26T06:23:15.256Z,36.70
2018-05-26T06:25:44.397Z,35.40
2018-05-26T06:28:13.325Z,34.80
2018-05-26T06:30:42.267Z,35.20
2018-05-26T06:33:11.189Z,34.80
2018-05-26T06:35:40.165Z,35.20
2018-05-26T06:38:09.095Z,34.80
2018-05-26T06:40:38.015Z,34.40
2018-05-26T06:43:07.742Z,32.40
2018-05-26T06:45:36.682Z,32.30
2018-05-26T06:48:05.637Z,32.30
2018-05-26T06:50:34.707Z,32.50
2018-05-26T06:53:04.389Z,32.00
2018-05-26T06:55:33.334Z,31.90
2018-05-26T06:58:03.046Z,33.30
2018-05-26T07:00:31.957Z,34.00
2018-05-26T07:03:00.903Z,34.20
2018-05-26T07:05:29.824Z,31.70
2018-05-26T07:07:58.720Z,30.70
2018-05-26T07:10:27.633Z,29.30
2018-05-26T07:12:56.601Z,29.40
2018-05-26T07:15:25.562Z,31.20
2018-05-26T07:17:55.293Z,31.70
2018-05-26T07:20:24.231Z,31.70
2018-05-26T07:22:53.164Z,31.00
2018-05-26T07:25:22.120Z,32.30
2018-05-26T07:27:51.916Z,31.00
2018-05-26T07:30:20.889Z,29.70
2018-05-26T07:32:49.857Z,29.60
2018-05-26T07:35:18.796Z,30.00
2018-05-26T07:37:47.728Z,30.50
2018-05-26T07:40:16.657Z,29.60
2018-05-26T07:42:45.664Z,28.40
2018-05-26T07:45:14.610Z,28.10
2018-05-26T07:47:43.529Z,27.50
2018-05-26T07:50:12.543Z,28.30
2018-05-26T07:52:41.535Z,29.00
2018-05-26T07:55:10.474Z,29.10
2018-05-26T07:57:39.388Z,26.90
2018-05-26T08:00:08.381Z,27.00
2018-05-26T08:02:38.061Z,26.30
2018-05-26T08:05:06.975Z,26.20
2018-05-26T08:07:35.885Z,26.00
2018-05-26T08:10:04.812Z,25.10
2018-05-26T08:12:33.753Z,25.00
2018-05-26T08:15:02.656Z,24.90
2018-05-26T08:17:31.606Z,25.30
2018-05-26T08:20:01.351Z,25.60
2018-05-26T08:22:30.292Z,25.60
2018-05-26T08:25:00.039Z,26.30
2018-05-26T08:27:28.944Z,26.30
2018-05-26T08:29:57.966Z,26.30
2018-05-26T08:32:26.898Z,26.30
2018-05-26T08:34:55.841Z,26.90
2018-05-26T08:37:24.795Z,26.10
2018-05-26T08:39:53.705Z,25.60
2018-05-26T08:42:22.740Z,25.30
2018-05-26T08:44:52.429Z,25.70
2018-05-26T08:47:21.382Z,25.30
2018-05-26T08:49:50.355Z,25.70
2018-05-26T08:52:19.286Z,25.20
2018-05-26T08:54:48.346Z,25.60
2018-05-26T08:57:17.321Z,26.10
2018-05-26T08:59:47.013Z,26.90
2018-05-26T09:02:15.902Z,26.30
2018-05-26T09:04:45.652Z,26.40
2018-05-26T09:07:14.573Z,26.40
2018-05-26T09:09:44.912Z,26.20
2018-05-26T09:12:13.867Z,27.00
2018-05-26T09:14:42.845Z,26.90
2018-05-26T09:17:11.781Z,27.00
2018-05-26T09:19:47.210Z,27.50
2018-05-26T09:22:16.718Z,26.60
2018-05-26T09:24:45.621Z,26.80
2018-05-26T09:27:14.523Z,28.00
2018-05-26T09:29:43.442Z,26.70
2018-05-26T09:32:13.317Z,26.80
2018-05-26T09:34:42.277Z,26.80
2018-05-26T09:37:11.165Z,27.90
2018-05-26T09:39:40.076Z,27.20
2018-05-26T09:42:09.473Z,27.10
2018-05-26T09:44:38.464Z,27.20
2018-05-26T09:47:07.433Z,27.20
2018-05-26T09:49:36.356Z,28.80
2018-05-26T09:52:05.368Z,28.40
2018-05-26T09:54:34.372Z,29.50
2018-05-26T09:57:03.260Z,29.50
2018-05-26T09:59:32.184Z,28.80
2018-05-26T10:02:01.175Z,28.30
2018-05-26T10:04:30.152Z,27.30
2018-05-26T10:06:59.852Z,27.80
2018-05-26T10:09:29.574Z,29.40
2018-05-26T10:11:59.294Z,29.90
2018-05-26T10:14:28.200Z,29.90
2018-05-26T10:16:57.151Z,29.70
2018-05-26T10:19:27.078Z,28.30
2018-05-26T10:21:56.789Z,29.70
2018-05-26T10:24:26.515Z,30.00
2018-05-26T10:26:55.457Z,30.00
2018-05-26T10:29:24.394Z,28.80
2018-05-26T10:31:53.379Z,29.80
2018-05-26T10:34:23.206Z,30.90
2018-05-26T10:36:52.142Z,30.90
2018-05-26T10:39:21.049Z,30.10
2018-05-26T10:41:49.976Z,29.70
2018-05-26T10:44:18.920Z,30.70
2018-05-26T10:46:47.873Z,31.70
2018-05-26T10:49:16.796Z,30.70
2018-05-26T10:51:45.715Z,31.70
2018-05-26T10:54:24.013Z,30.00
2018-05-26T10:56:59.345Z,30.00
2018-05-26T10:59:29.102Z,31.10
2018-05-26T11:01:58.042Z,30.50
2018-05-26T11:04:26.972Z,29.80
2018-05-26T11:06:56.715Z,29.50
2018-05-26T11:09:25.680Z,29.50
2018-05-26T11:11:54.585Z,31.30
2018-05-26T11:14:23.541Z,31.00
2018-05-26T11:16:52.467Z,30.60
2018-05-26T11:19:21.386Z,30.60
2018-05-26T11:21:50.415Z,29.90
2018-05-26T11:24:19.345Z,31.50
2018-05-26T11:26:48.249Z,30.20
2018-05-26T11:29:17.223Z,32.60
2018-05-26T11:31:46.151Z,33.80
2018-05-26T11:34:15.039Z,32.00
2018-05-26T11:36:44.144Z,30.10
2018-05-26T11:39:13.350Z,31.80
2018-05-26T11:41:42.293Z,30.20
2018-05-26T11:44:11.241Z,30.00
2018-05-26T11:46:40.165Z,29.70
2018-05-26T11:49:09.052Z,31.50
2018-05-26T11:51:38.729Z,31.00
2018-05-26T11:54:07.716Z,31.00
2018-05-26T11:56:36.613Z,31.50
2018-05-26T11:59:05.535Z,30.20
2018-05-26T12:01:35.257Z,34.00
2018-05-26T12:04:04.243Z,33.80
2018-05-26T12:06:33.250Z,33.40
2018-05-26T12:09:02.167Z,31.50
2018-05-26T12:11:31.138Z,29.80
2018-05-26T12:14:00.056Z,29.80
2018-05-26T12:16:28.983Z,30.10
2018-05-26T12:18:58.665Z,30.20
2018-05-26T12:21:27.588Z,30.10
2018-05-26T12:23:57.299Z,30.60
2018-05-26T12:26:26.239Z,30.60
2018-05-26T12:28:55.211Z,31.20
2018-05-26T12:31:24.119Z,31.10
2018-05-26T12:33:53.055Z,30.90
2018-05-26T12:36:22.764Z,32.00
2018-05-26T12:38:52.753Z,31.90
2018-05-26T12:41:21.730Z,31.90
2018-05-26T12:43:50.693Z,31.30
2018-05-26T12:46:19.610Z,30.60
2018-05-26T12:48:48.551Z,30.90
2018-05-26T12:51:18.541Z,31.30
2018-05-26T12:53:51.265Z,31.20
2018-05-26T12:56:20.231Z,31.50
2018-05-26T12:58:49.925Z,33.60
2018-05-26T13:01:18.845Z,33.60
2018-05-26T13:03:48.837Z,33.00
2018-05-26T13:06:17.723Z,32.90
2018-05-26T13:08:46.633Z,33.00
2018-05-26T13:11:15.598Z,33.30
2018-05-26T13:13:44.538Z,32.70
2018-05-26T13:16:13.477Z,33.40
2018-05-26T13:18:42.448Z,33.10
2018-05-26T13:21:11.335Z,33.30
2018-05-26T13:23:40.313Z,32.60
2018-05-26T13:26:09.212Z,33.90
2018-05-26T13:29:27.362Z,35.60
2018-05-26T13:31:57.112Z,36.40
2018-05-26T13:34:26.037Z,36.30
2018-05-26T13:36:54.941Z,34.50
2018-05-26T13:39:24.006Z,35.10
2018-05-26T13:41:53.746Z,35.40
2018-05-26T13:44:22.656Z,35.40
2018-05-26T13:46:51.629Z,35.70
2018-05-26T13:49:20.623Z,35.60
2018-05-26T13:51:49.582Z,35.00
2018-05-26T13:54:19.396Z,34.30
2018-05-26T13:56:48.233Z,34.20
2018-05-26T13:59:17.163Z,35.50
2018-05-26T14:01:46.899Z,34.70
2018-05-26T14:04:15.807Z,34.70
2018-05-26T14:06:44.691Z,35.40
2018-05-26T14:09:13.696Z,36.10
2018-05-26T14:11:42.611Z,37.00
2018-05-26T14:14:11.522Z,37.80
2018-05-26T14:16:40.538Z,37.30
2018-05-26T14:19:10.392Z,38.60
2018-05-26T14:21:39.260Z,38.50
2018-05-26T14:24:08.157Z,38.80
2018-05-26T14:26:37.090Z,37.90
2018-05-26T14:29:06.004Z,38.50
2018-05-26T14:31:35.734Z,36.70
2018-05-26T14:34:04.635Z,36.70
2018-05-26T14:36:33.565Z,37.90
2018-05-26T14:39:02.530Z,38.40
2018-05-26T14:41:31.928Z,39.80
2018-05-26T14:44:00.822Z,39.70
2018-05-26T14:46:29.745Z,39.70
2018-05-26T14:48:58.679Z,39.90
2018-05-26T14:51:27.608Z,41.30
2018-05-26T14:53:56.558Z,41.10
2018-05-26T14:56:25.506Z,41.90
2018-05-26T14:58:54.423Z,42.60
2018-05-26T15:01:24.125Z,42.40
2018-05-26T15:03:53.799Z,42.40
2018-05-26T15:06:22.719Z,42.40
2018-05-26T15:08:51.646Z,42.40
2018-05-26T15:11:20.564Z,42.90
2018-05-26T15:13:49.448Z,42.20
2018-05-26T15:16:18.399Z,43.20
2018-05-26T15:18:48.125Z,44.40
2018-05-26T15:21:17.055Z,44.30
2018-05-26T15:23:46.008Z,43.50
2018-05-26T15:26:20.484Z,43.60
2018-05-26T15:31:27.861Z,45.50
2018-05-26T15:33:56.759Z,45.50
2018-05-26T15:36:25.714Z,45.80
2018-05-26T15:38:54.619Z,46.40
2018-05-26T15:41:23.549Z,45.50
2018-05-26T15:43:52.571Z,46.00
2018-05-26T15:46:22.277Z,45.80
2018-05-26T15:48:51.168Z,45.70
2018-05-26T15:51:20.103Z,46.80
2018-05-26T15:53:49.100Z,47.00
2018-05-26T15:56:17.985Z,45.80
2018-05-26T15:58:47.633Z,45.80
2018-05-26T16:01:16.540Z,45.70
2018-05-26T16:03:46.234Z,47.50
2018-05-26T16:06:15.152Z,47.40
2018-05-26T16:08:44.074Z,47.00
2018-05-26T16:11:13.010Z,46.50
2018-05-26T16:13:41.965Z,47.50
2018-05-26T16:16:10.851Z,47.80
2018-05-26T16:18:39.760Z,48.30
2018-05-26T16:21:08.671Z,49.00
2018-05-26T16:23:37.604Z,49.30
2018-05-26T16:26:06.576Z,48.20
2018-05-26T16:28:36.236Z,48.50
2018-05-26T16:31:05.184Z,48.40
2018-05-26T16:33:34.115Z,48.60
2018-05-26T16:36:03.040Z,48.60
2018-05-26T16:38:31.965Z,49.20
2018-05-26T16:41:00.885Z,49.60
2018-05-26T16:43:30.198Z,49.90
2018-05-26T16:45:59.571Z,50.20
2018-05-26T16:48:28.471Z,50.70
2018-05-26T16:50:57.397Z,50.60
2018-05-26T16:53:26.382Z,50.70
2018-05-26T16:55:55.323Z,50.50
2018-05-26T16:58:24.217Z,50.80
2018-05-26T17:00:53.127Z,50.80
2018-05-26T17:03:22.837Z,51.10
2018-05-26T17:05:51.769Z,51.00
2018-05-26T17:08:20.714Z,51.20
2018-05-26T17:10:49.649Z,51.60
2018-05-26T17:13:18.592Z,51.60
2018-05-26T17:15:47.489Z,51.90
2018-05-26T17:18:16.494Z,52.20
2018-05-26T17:20:45.429Z,52.20
2018-05-26T17:23:14.367Z,52.50
2018-05-26T17:25:43.321Z,52.80
2018-05-26T17:28:13.024Z,54.00
2018-05-26T17:30:41.938Z,53.90
2018-05-26T17:33:10.953Z,55.20
2018-05-26T17:35:39.882Z,55.40
2018-05-26T17:38:08.827Z,55.50
2018-05-26T17:40:37.800Z,55.80
2018-05-26T17:43:06.749Z,56.20
2018-05-26T17:45:36.470Z,56.30
2018-05-26T17:48:06.707Z,57.10
2018-05-26T17:50:36.383Z,57.40
2018-05-26T17:53:10.013Z,57.40
2018-05-26T17:55:39.018Z,57.70
2018-05-26T17:58:09.580Z,57.70
2018-05-26T18:00:38.517Z,57.70
2018-05-26T18:03:07.464Z,58.10
2018-05-26T18:05:43.289Z,58.50
2018-05-26T18:08:12.293Z,58.80
2018-05-26T18:10:41.356Z,59.20
2018-05-26T18:13:11.107Z,60.00
2018-05-26T18:15:40.815Z,59.80
2018-05-26T18:18:09.737Z,60.10
2018-05-26T18:20:38.663Z,60.00
2018-05-26T18:23:08.340Z,59.90
2018-05-26T18:25:37.290Z,59.90
2018-05-26T18:28:10.590Z,60.60
2018-05-26T18:30:40.676Z,61.10
2018-05-26T18:33:39.313Z,60.90
2018-05-26T18:36:12.200Z,61.40
2018-05-26T18:38:45.053Z,61.90
2018-05-26T18:41:16.708Z,61.90
2018-05-26T18:43:49.483Z,62.20
2018-05-26T18:46:23.720Z,62.60
2018-05-26T18:48:54.331Z,62.60
2018-05-26T18:51:23.264Z,62.50
2018-05-26T18:53:52.169Z,62.50
2018-05-26T18:56:21.090Z,62.70
2018-05-26T18:58:50.814Z,64.40
2018-05-26T19:01:21.488Z,64.30
2018-05-26T19:03:50.388Z,65.00
2018-05-26T19:06:20.045Z,66.00
2018-05-26T19:08:48.954Z,66.80
2018-05-26T19:11:17.990Z,67.40
2018-05-26T19:13:48.046Z,67.80
2018-05-26T19:16:17.735Z,67.90
2018-05-26T19:18:46.675Z,67.90
2018-05-26T19:21:16.689Z,68.40
2018-05-26T19:23:45.606Z,68.50
2018-05-26T19:26:14.515Z,68.50
2018-05-26T19:28:43.453Z,68.60
2018-05-26T19:31:20.132Z,68.70
2018-05-26T19:33:49.125Z,68.70
2018-05-26T19:36:19.867Z,68.90
2018-05-26T19:38:49.449Z,68.80
2018-05-26T19:41:18.420Z,69.40
2018-05-26T19:43:48.208Z,69.90
2018-05-26T19:46:20.107Z,69.80
2018-05-26T19:48:49.183Z,70.40
2018-05-26T19:51:20.426Z,71.30
2018-05-26T19:53:50.116Z,71.50
2018-05-26T19:56:19.072Z,71.40
2018-05-26T19:58:48.759Z,72.40
2018-05-26T20:01:17.686Z,72.50
2018-05-26T20:03:46.670Z,72.80
2018-05-26T20:06:15.657Z,73.10
2018-05-26T20:08:44.601Z,73.40
2018-05-26T20:11:14.300Z,73.80
2018-05-26T20:13:43.241Z,73.80
2018-05-26T20:16:12.208Z,74.20
2018-05-26T20:18:41.140Z,74.40
2018-05-26T20:21:10.132Z,74.50
2018-05-26T20:23:39.088Z,74.80
2018-05-26T20:26:08.085Z,75.20
2018-05-26T20:28:37.015Z,75.20
2018-05-26T20:31:05.948Z,75.40
2018-05-26T20:33:35.982Z,75.60
2018-05-26T20:36:04.909Z,75.80
2018-05-26T20:38:33.885Z,75.80
2018-05-26T20:41:02.813Z,75.90
2018-05-26T20:43:31.798Z,76.40
2018-05-26T20:46:00.765Z,76.40
2018-05-26T20:48:29.741Z,76.40
2018-05-26T20:50:58.689Z,76.40
2018-05-26T20:53:27.687Z,76.30
2018-05-26T20:55:56.593Z,76.10
2018-05-26T20:58:26.355Z,76.60
2018-05-26T21:00:55.329Z,76.50
2018-05-26T21:03:24.243Z,76.70
2018-05-26T21:05:53.155Z,77.00
2018-05-26T21:08:22.085Z,77.30
2018-05-26T21:10:50.994Z,77.60
2018-05-26T21:13:19.970Z,77.80
2018-05-26T21:15:48.918Z,77.80
2018-05-26T21:18:17.872Z,78.10
2018-05-26T21:20:46.842Z,78.30
2018-05-26T21:23:20.330Z,78.40
2018-05-26T21:25:50.374Z,78.50
2018-05-26T21:28:19.289Z,78.70
2018-05-26T21:30:49.658Z,79.00
2018-05-26T21:33:19.377Z,79.30
2018-05-26T21:35:48.298Z,79.20
2018-05-26T21:38:17.270Z,79.10
2018-05-26T21:40:49.051Z,79.20
2018-05-26T21:43:18.374Z,79.60
2018-05-26T21:48:23.477Z,79.70
2018-05-26T21:50:52.477Z,79.70
2018-05-26T21:53:22.233Z,80.80
2018-05-26T21:55:52.405Z,80.30
2018-05-26T21:58:24.168Z,80.70
2018-05-26T22:00:53.122Z,81.20
2018-05-26T22:03:22.420Z,81.50
2018-05-26T22:05:51.398Z,82.10
2018-05-26T22:08:20.353Z,82.50
2018-05-26T22:10:49.288Z,82.60
2018-05-26T22:13:18.209Z,82.30
2018-05-26T22:15:47.941Z,82.10
2018-05-26T22:18:17.677Z,82.70
2018-05-26T22:20:46.591Z,82.60
2018-05-26T22:23:15.531Z,82.90
2018-05-26T22:25:44.485Z,83.10
2018-05-26T22:28:13.432Z,82.90
2018-05-26T22:30:42.341Z,82.90
2018-05-26T22:33:11.322Z,83.00
2018-05-26T22:35:40.319Z,83.00
2018-05-26T22:38:09.294Z,83.10
2018-05-26T22:40:38.237Z,83.30
2018-05-26T22:43:07.933Z,83.30
2018-05-26T22:45:36.928Z,83.20
2018-05-26T22:48:05.877Z,83.70
2018-05-26T22:50:34.814Z,83.60
2018-05-26T22:53:03.797Z,83.30
2018-05-26T22:55:32.745Z,83.40
2018-05-26T22:58:01.923Z,83.40
2018-05-26T23:00:30.854Z,83.60
2018-05-26T23:02:59.811Z,83.90
2018-05-26T23:05:28.865Z,84.70
2018-05-26T23:07:57.817Z,85.00
2018-05-26T23:10:26.738Z,85.30
2018-05-26T23:12:55.727Z,85.50
2018-05-26T23:15:24.663Z,85.90
2018-05-26T23:17:53.581Z,85.90
2018-05-26T23:20:22.492Z,85.60
2018-05-26T23:22:51.477Z,84.50
2018-05-26T23:25:20.429Z,84.80
2018-05-26T23:27:49.367Z,85.20
2018-05-26T23:30:18.330Z,85.60
2018-05-26T23:32:47.271Z,85.60
2018-05-26T23:35:16.200Z,85.90
2018-05-26T23:37:45.112Z,86.30
2018-05-26T23:40:14.098Z,86.80
2018-05-26T23:42:43.067Z,86.20
2018-05-26T23:45:12.032Z,85.40
2018-05-26T23:47:40.952Z,85.80
2018-05-26T23:50:09.836Z,85.90
2018-05-26T23:52:39.568Z,86.70
2018-05-26T23:55:08.460Z,86.70
2018-05-26T23:57:37.384Z,85.80
